EWG71CL EDDS-EDDB
Flight info
| Callsign | EWG71CL |
|---|---|
| Flight time | 0h 54m |
| Altitude | 27000 |
| Route | OKIBA4B OKIBA N851 RIMKI Z99 LOHRE N746 TIKNI T279 TAMEB T278 KLF KLF1R |
| Aircraft | A320/M-SDE3FGHIRWY/LB1 |
Departure
| Time | 2026-05-06 07:42 |
|---|---|
| Airport | Stuttgart Airport (EDDS) |
Arrival
| Time | 2026-05-06 08:36 |
|---|---|
| Airport | Berlin Brandenburg Airport (EDDB) |
| Time | Latitude | Longitude | Altitude | Speed | Heading |
|---|---|---|---|---|---|
| 2026-05-06 07:16 | 48.68796 | 9.19682 | 1304 ft | 0 kts | 163° |
| 2026-05-06 07:32 | 48.68785 | 9.19686 | 1303 ft | 5 kts | 163° |
| 2026-05-06 07:33 | 48.68744 | 9.19713 | 1301 ft | 7 kts | 131° |
| 2026-05-06 07:33 | 48.68748 | 9.19800 | 1298 ft | 10 kts | 75° |
| 2026-05-06 07:33 | 48.68774 | 9.19899 | 1296 ft | 10 kts | 53° |
| 2026-05-06 07:33 | 48.68816 | 9.19980 | 1295 ft | 9 kts | 51° |
| 2026-05-06 07:34 | 48.68844 | 9.20065 | 1294 ft | 9 kts | 73° |
| 2026-05-06 07:34 | 48.68863 | 9.20161 | 1292 ft | 10 kts | 73° |
| 2026-05-06 07:34 | 48.68883 | 9.20268 | 1289 ft | 11 kts | 74° |
| 2026-05-06 07:34 | 48.68905 | 9.20385 | 1291 ft | 12 kts | 74° |
| 2026-05-06 07:35 | 48.68930 | 9.20517 | 1282 ft | 14 kts | 74° |
| 2026-05-06 07:35 | 48.68959 | 9.20671 | 1279 ft | 17 kts | 73° |
| 2026-05-06 07:35 | 48.68994 | 9.20857 | 1276 ft | 21 kts | 74° |
| 2026-05-06 07:35 | 48.69037 | 9.21085 | 1273 ft | 24 kts | 74° |
| 2026-05-06 07:36 | 48.69084 | 9.21333 | 1263 ft | 26 kts | 74° |
| 2026-05-06 07:36 | 48.69129 | 9.21569 | 1260 ft | 23 kts | 73° |
| 2026-05-06 07:36 | 48.69170 | 9.21787 | 1256 ft | 18 kts | 74° |
| 2026-05-06 07:36 | 48.69209 | 9.21990 | 1255 ft | 22 kts | 73° |
| 2026-05-06 07:37 | 48.69255 | 9.22229 | 1246 ft | 25 kts | 74° |
| 2026-05-06 07:37 | 48.69299 | 9.22461 | 1242 ft | 18 kts | 74° |
| 2026-05-06 07:37 | 48.69335 | 9.22654 | 1233 ft | 21 kts | 74° |
| 2026-05-06 07:37 | 48.69379 | 9.22883 | 1228 ft | 24 kts | 74° |
| 2026-05-06 07:38 | 48.69424 | 9.23124 | 1223 ft | 23 kts | 74° |
| 2026-05-06 07:38 | 48.69469 | 9.23361 | 1218 ft | 25 kts | 74° |
| 2026-05-06 07:38 | 48.69518 | 9.23633 | 1212 ft | 28 kts | 74° |
| 2026-05-06 07:38 | 48.69565 | 9.23862 | 1208 ft | 20 kts | 75° |
| 2026-05-06 07:39 | 48.69606 | 9.24081 | 1203 ft | 22 kts | 73° |
| 2026-05-06 07:39 | 48.69571 | 9.24262 | 1195 ft | 17 kts | 126° |
| 2026-05-06 07:39 | 48.69501 | 9.24317 | 1190 ft | 8 kts | 164° |
| 2026-05-06 07:39 | 48.69497 | 9.24318 | 1190 ft | 0 kts | 163° |
| 2026-05-06 07:40 | 48.69489 | 9.24321 | 1190 ft | 4 kts | 163° |
| 2026-05-06 07:40 | 48.69429 | 9.24344 | 1190 ft | 10 kts | 174° |
| 2026-05-06 07:40 | 48.69387 | 9.24299 | 1191 ft | 6 kts | 244° |
| 2026-05-06 07:41 | 48.69377 | 9.24250 | 1192 ft | 7 kts | 253° |
| 2026-05-06 07:41 | 48.69319 | 9.23941 | 1198 ft | 66 kts | 254° |
| 2026-05-06 07:41 | 48.69138 | 9.22965 | 1218 ft | 126 kts | 254° |
| 2026-05-06 07:41 | 48.68866 | 9.21470 | 1422 ft | 156 kts | 255° |
| 2026-05-06 07:42 | 48.68574 | 9.19903 | 2151 ft | 155 kts | 254° |
| 2026-05-06 07:42 | 48.68273 | 9.18326 | 2880 ft | 156 kts | 254° |
| 2026-05-06 07:42 | 48.67955 | 9.16701 | 3347 ft | 170 kts | 253° |
| 2026-05-06 07:42 | 48.67593 | 9.14873 | 3639 ft | 192 kts | 253° |
| 2026-05-06 07:43 | 48.67182 | 9.12808 | 3947 ft | 218 kts | 253° |
| 2026-05-06 07:43 | 48.67032 | 9.10445 | 4469 ft | 237 kts | 284° |
| 2026-05-06 07:43 | 48.67778 | 9.08193 | 5277 ft | 244 kts | 304° |
| 2026-05-06 07:43 | 48.69008 | 9.06468 | 6126 ft | 252 kts | 332° |
| 2026-05-06 07:44 | 48.70744 | 9.05626 | 6666 ft | 273 kts | 343° |
| 2026-05-06 07:44 | 48.72602 | 9.04847 | 7412 ft | 281 kts | 341° |
| 2026-05-06 07:44 | 48.74554 | 9.04351 | 8210 ft | 291 kts | 358° |
| 2026-05-06 07:44 | 48.76568 | 9.04884 | 9015 ft | 300 kts | 19° |
| 2026-05-06 07:45 | 48.78377 | 9.06515 | 9807 ft | 309 kts | 43° |
| 2026-05-06 07:45 | 48.79789 | 9.09062 | 10248 ft | 327 kts | 55° |
| 2026-05-06 07:45 | 48.81153 | 9.11971 | 10578 ft | 348 kts | 56° |
| 2026-05-06 07:45 | 48.82550 | 9.15023 | 11242 ft | 355 kts | 57° |
| 2026-05-06 07:46 | 48.83943 | 9.18081 | 12017 ft | 359 kts | 57° |
| 2026-05-06 07:46 | 48.85374 | 9.21208 | 12806 ft | 362 kts | 57° |
| 2026-05-06 07:46 | 48.86823 | 9.24361 | 13588 ft | 366 kts | 57° |
| 2026-05-06 07:46 | 48.88319 | 9.27507 | 14255 ft | 370 kts | 52° |
| 2026-05-06 07:47 | 48.90194 | 9.30226 | 14915 ft | 376 kts | 37° |
| 2026-05-06 07:47 | 48.92465 | 9.32215 | 15580 ft | 380 kts | 22° |
| 2026-05-06 07:47 | 48.95005 | 9.33332 | 16244 ft | 382 kts | 8° |
| 2026-05-06 07:47 | 48.97662 | 9.33515 | 16921 ft | 383 kts | 355° |
| 2026-05-06 07:48 | 49.00335 | 9.33296 | 17598 ft | 386 kts | 355° |
| 2026-05-06 07:48 | 49.02995 | 9.33081 | 18228 ft | 389 kts | 355° |
| 2026-05-06 07:48 | 49.05706 | 9.32867 | 18797 ft | 392 kts | 355° |
| 2026-05-06 07:48 | 49.08445 | 9.32653 | 19360 ft | 395 kts | 355° |
| 2026-05-06 07:49 | 49.11201 | 9.32437 | 19922 ft | 398 kts | 355° |
| 2026-05-06 07:49 | 49.13980 | 9.32215 | 20484 ft | 401 kts | 355° |
| 2026-05-06 07:49 | 49.16779 | 9.31992 | 21044 ft | 404 kts | 354° |
| 2026-05-06 07:49 | 49.19597 | 9.31768 | 21582 ft | 407 kts | 354° |
| 2026-05-06 07:50 | 49.22396 | 9.31542 | 22097 ft | 410 kts | 354° |
| 2026-05-06 07:50 | 49.25261 | 9.31310 | 22618 ft | 413 kts | 354° |
| 2026-05-06 07:50 | 49.28143 | 9.31079 | 23128 ft | 416 kts | 354° |
| 2026-05-06 07:50 | 49.31046 | 9.30852 | 23581 ft | 420 kts | 354° |
| 2026-05-06 07:51 | 49.33973 | 9.30629 | 23985 ft | 423 kts | 354° |
| 2026-05-06 07:51 | 49.36942 | 9.30736 | 24363 ft | 430 kts | 2° |
| 2026-05-06 07:51 | 49.39927 | 9.31191 | 24761 ft | 433 kts | 2° |
| 2026-05-06 07:51 | 49.42939 | 9.31643 | 25130 ft | 437 kts | 2° |
| 2026-05-06 07:52 | 49.45979 | 9.32098 | 25499 ft | 440 kts | 2° |
| 2026-05-06 07:52 | 49.49000 | 9.32547 | 25863 ft | 444 kts | 2° |
| 2026-05-06 07:52 | 49.52083 | 9.33001 | 26225 ft | 447 kts | 2° |
| 2026-05-06 07:52 | 49.55191 | 9.33456 | 26586 ft | 450 kts | 2° |
| 2026-05-06 07:53 | 49.58322 | 9.33914 | 26767 ft | 452 kts | 2° |
| 2026-05-06 07:53 | 49.61402 | 9.34371 | 26794 ft | 439 kts | 2° |
| 2026-05-06 07:53 | 49.64420 | 9.34823 | 26791 ft | 433 kts | 2° |
| 2026-05-06 07:53 | 49.67416 | 9.35270 | 26791 ft | 432 kts | 2° |
| 2026-05-06 07:54 | 49.70402 | 9.35716 | 26788 ft | 431 kts | 2° |
| 2026-05-06 07:54 | 49.73352 | 9.36156 | 26789 ft | 431 kts | 2° |
| 2026-05-06 07:54 | 49.76315 | 9.36920 | 26788 ft | 434 kts | 11° |
| 2026-05-06 07:54 | 49.79252 | 9.38049 | 26789 ft | 434 kts | 11° |
| 2026-05-06 07:55 | 49.82184 | 9.39177 | 26797 ft | 434 kts | 11° |
| 2026-05-06 07:55 | 49.85108 | 9.40304 | 26788 ft | 433 kts | 11° |
| 2026-05-06 07:55 | 49.88027 | 9.41427 | 26781 ft | 432 kts | 11° |
| 2026-05-06 07:55 | 49.90937 | 9.42547 | 26781 ft | 431 kts | 11° |
| 2026-05-06 07:56 | 49.93855 | 9.43672 | 26779 ft | 431 kts | 11° |
| 2026-05-06 07:56 | 49.96763 | 9.44791 | 26777 ft | 431 kts | 11° |
| 2026-05-06 07:56 | 49.99640 | 9.45903 | 26778 ft | 432 kts | 11° |
| 2026-05-06 07:56 | 50.02556 | 9.47033 | 26777 ft | 432 kts | 11° |
| 2026-05-06 07:57 | 50.05432 | 9.48389 | 26786 ft | 434 kts | 19° |
| 2026-05-06 07:57 | 50.08153 | 9.50424 | 26791 ft | 435 kts | 29° |
| 2026-05-06 07:57 | 50.10664 | 9.53062 | 26791 ft | 436 kts | 34° |
| 2026-05-06 07:57 | 50.13122 | 9.55823 | 26789 ft | 436 kts | 34° |
| 2026-05-06 07:58 | 50.15583 | 9.58593 | 26785 ft | 436 kts | 34° |
| 2026-05-06 07:58 | 50.18007 | 9.61323 | 26785 ft | 436 kts | 34° |
| 2026-05-06 07:58 | 50.20462 | 9.64091 | 26782 ft | 436 kts | 34° |
| 2026-05-06 07:58 | 50.22918 | 9.66861 | 26781 ft | 436 kts | 34° |
| 2026-05-06 07:59 | 50.25374 | 9.69629 | 26775 ft | 435 kts | 34° |
| 2026-05-06 07:59 | 50.27828 | 9.72396 | 26780 ft | 435 kts | 34° |
| 2026-05-06 07:59 | 50.30281 | 9.75168 | 26783 ft | 435 kts | 34° |
| 2026-05-06 07:59 | 50.32728 | 9.77942 | 26785 ft | 435 kts | 34° |
| 2026-05-06 08:00 | 50.35177 | 9.80724 | 26783 ft | 435 kts | 34° |
| 2026-05-06 08:00 | 50.37620 | 9.83502 | 26778 ft | 435 kts | 34° |
| 2026-05-06 08:00 | 50.40029 | 9.86265 | 26777 ft | 435 kts | 37° |
| 2026-05-06 08:00 | 50.42270 | 9.89455 | 26774 ft | 435 kts | 46° |
| 2026-05-06 08:01 | 50.44342 | 9.92911 | 26774 ft | 435 kts | 46° |
| 2026-05-06 08:01 | 50.46418 | 9.96371 | 26785 ft | 435 kts | 46° |
| 2026-05-06 08:01 | 50.48491 | 9.99815 | 26795 ft | 433 kts | 46° |
| 2026-05-06 08:01 | 50.50562 | 10.03251 | 26800 ft | 432 kts | 46° |
| 2026-05-06 08:02 | 50.52623 | 10.06674 | 26800 ft | 431 kts | 46° |
| 2026-05-06 08:02 | 50.54682 | 10.10099 | 26793 ft | 431 kts | 46° |
| 2026-05-06 08:02 | 50.56705 | 10.13475 | 26788 ft | 430 kts | 46° |
| 2026-05-06 08:02 | 50.58752 | 10.16904 | 26786 ft | 430 kts | 46° |
| 2026-05-06 08:03 | 50.60795 | 10.20335 | 26779 ft | 429 kts | 47° |
| 2026-05-06 08:03 | 50.62836 | 10.23760 | 26771 ft | 429 kts | 46° |
| 2026-05-06 08:03 | 50.64822 | 10.27265 | 26768 ft | 429 kts | 52° |
| 2026-05-06 08:03 | 50.66474 | 10.31171 | 26752 ft | 428 kts | 62° |
| 2026-05-06 08:04 | 50.67888 | 10.35290 | 26743 ft | 428 kts | 63° |
| 2026-05-06 08:04 | 50.69306 | 10.39428 | 26734 ft | 429 kts | 63° |
| 2026-05-06 08:04 | 50.70708 | 10.43510 | 26733 ft | 430 kts | 62° |
| 2026-05-06 08:04 | 50.72135 | 10.47659 | 26736 ft | 430 kts | 63° |
| 2026-05-06 08:05 | 50.73560 | 10.51809 | 26738 ft | 431 kts | 63° |
| 2026-05-06 08:05 | 50.74982 | 10.55969 | 26740 ft | 431 kts | 63° |
| 2026-05-06 08:05 | 50.76408 | 10.60143 | 26739 ft | 431 kts | 63° |
| 2026-05-06 08:05 | 50.77830 | 10.64312 | 26741 ft | 432 kts | 63° |
| 2026-05-06 08:06 | 50.79249 | 10.68489 | 26741 ft | 432 kts | 63° |
| 2026-05-06 08:06 | 50.80668 | 10.72673 | 26742 ft | 432 kts | 63° |
| 2026-05-06 08:06 | 50.82088 | 10.76859 | 26745 ft | 432 kts | 63° |
| 2026-05-06 08:06 | 50.83488 | 10.80992 | 26757 ft | 432 kts | 63° |
| 2026-05-06 08:07 | 50.84901 | 10.85172 | 26780 ft | 430 kts | 63° |
| 2026-05-06 08:07 | 50.86306 | 10.89333 | 26771 ft | 429 kts | 63° |
| 2026-05-06 08:07 | 50.87713 | 10.93494 | 26771 ft | 428 kts | 63° |
| 2026-05-06 08:07 | 50.89113 | 10.97657 | 26769 ft | 428 kts | 63° |
| 2026-05-06 08:08 | 50.90508 | 11.01817 | 26768 ft | 428 kts | 63° |
| 2026-05-06 08:08 | 50.91900 | 11.05979 | 26765 ft | 428 kts | 63° |
| 2026-05-06 08:08 | 50.93275 | 11.10092 | 26762 ft | 428 kts | 63° |
| 2026-05-06 08:08 | 50.94665 | 11.14253 | 26763 ft | 428 kts | 63° |
| 2026-05-06 08:09 | 50.96056 | 11.18421 | 26758 ft | 428 kts | 63° |
| 2026-05-06 08:09 | 50.97445 | 11.22594 | 26757 ft | 427 kts | 63° |
| 2026-05-06 08:09 | 50.98832 | 11.26763 | 26757 ft | 427 kts | 63° |
| 2026-05-06 08:09 | 51.00219 | 11.30933 | 26756 ft | 427 kts | 63° |
| 2026-05-06 08:10 | 51.01606 | 11.35109 | 26758 ft | 427 kts | 63° |
| 2026-05-06 08:10 | 51.02990 | 11.39282 | 26775 ft | 426 kts | 64° |
| 2026-05-06 08:10 | 51.04366 | 11.43446 | 26773 ft | 424 kts | 64° |
| 2026-05-06 08:10 | 51.05714 | 11.47538 | 26779 ft | 424 kts | 64° |
| 2026-05-06 08:11 | 51.07078 | 11.51688 | 26781 ft | 423 kts | 64° |
| 2026-05-06 08:11 | 51.08435 | 11.55836 | 26777 ft | 423 kts | 64° |
| 2026-05-06 08:11 | 51.09787 | 11.59979 | 26773 ft | 422 kts | 64° |
| 2026-05-06 08:11 | 51.11135 | 11.64109 | 26616 ft | 418 kts | 64° |
| 2026-05-06 08:12 | 51.12468 | 11.68180 | 26276 ft | 412 kts | 64° |
| 2026-05-06 08:12 | 51.13787 | 11.72215 | 25944 ft | 409 kts | 64° |
| 2026-05-06 08:12 | 51.15076 | 11.76174 | 25579 ft | 407 kts | 64° |
| 2026-05-06 08:12 | 51.16370 | 11.80163 | 25206 ft | 404 kts | 64° |
| 2026-05-06 08:13 | 51.17652 | 11.84135 | 24830 ft | 402 kts | 64° |
| 2026-05-06 08:13 | 51.18928 | 11.88090 | 24473 ft | 400 kts | 64° |
| 2026-05-06 08:13 | 51.20203 | 11.92014 | 24197 ft | 398 kts | 62° |
| 2026-05-06 08:13 | 51.21736 | 11.95671 | 23936 ft | 397 kts | 52° |
| 2026-05-06 08:14 | 51.23594 | 11.98922 | 23659 ft | 396 kts | 47° |
| 2026-05-06 08:14 | 51.25500 | 12.02105 | 23402 ft | 396 kts | 47° |
| 2026-05-06 08:14 | 51.27401 | 12.05293 | 23107 ft | 396 kts | 47° |
| 2026-05-06 08:14 | 51.29267 | 12.08429 | 22802 ft | 394 kts | 47° |
| 2026-05-06 08:15 | 51.31153 | 12.11604 | 22507 ft | 393 kts | 47° |
| 2026-05-06 08:15 | 51.33031 | 12.14772 | 22217 ft | 392 kts | 47° |
| 2026-05-06 08:15 | 51.34900 | 12.17933 | 21907 ft | 391 kts | 47° |
| 2026-05-06 08:15 | 51.36763 | 12.21089 | 21628 ft | 390 kts | 47° |
| 2026-05-06 08:16 | 51.38620 | 12.24239 | 21336 ft | 388 kts | 47° |
| 2026-05-06 08:16 | 51.40468 | 12.27383 | 21074 ft | 387 kts | 46° |
| 2026-05-06 08:16 | 51.42311 | 12.30514 | 20795 ft | 386 kts | 46° |
| 2026-05-06 08:16 | 51.44149 | 12.33633 | 20512 ft | 384 kts | 46° |
| 2026-05-06 08:17 | 51.45961 | 12.36691 | 20233 ft | 383 kts | 44° |
| 2026-05-06 08:17 | 51.48075 | 12.39241 | 19895 ft | 379 kts | 27° |
| 2026-05-06 08:17 | 51.50387 | 12.41221 | 19528 ft | 375 kts | 26° |
| 2026-05-06 08:17 | 51.52691 | 12.43163 | 19154 ft | 371 kts | 25° |
| 2026-05-06 08:18 | 51.54932 | 12.45043 | 18792 ft | 356 kts | 25° |
| 2026-05-06 08:18 | 51.57094 | 12.46857 | 18437 ft | 347 kts | 25° |
| 2026-05-06 08:18 | 51.59210 | 12.48631 | 18080 ft | 338 kts | 25° |
| 2026-05-06 08:18 | 51.61259 | 12.50350 | 17677 ft | 328 kts | 25° |
| 2026-05-06 08:19 | 51.63255 | 12.52028 | 17287 ft | 320 kts | 25° |
| 2026-05-06 08:19 | 51.65185 | 12.53654 | 16890 ft | 315 kts | 25° |
| 2026-05-06 08:19 | 51.67119 | 12.55286 | 16500 ft | 312 kts | 25° |
| 2026-05-06 08:19 | 51.69032 | 12.56904 | 16112 ft | 310 kts | 25° |
| 2026-05-06 08:20 | 51.70940 | 12.58519 | 15734 ft | 310 kts | 25° |
| 2026-05-06 08:20 | 51.72843 | 12.60128 | 15355 ft | 308 kts | 24° |
| 2026-05-06 08:20 | 51.74730 | 12.61727 | 14978 ft | 305 kts | 24° |
| 2026-05-06 08:20 | 51.76598 | 12.63308 | 14613 ft | 303 kts | 24° |
| 2026-05-06 08:21 | 51.78457 | 12.64884 | 14233 ft | 300 kts | 24° |
| 2026-05-06 08:21 | 51.80271 | 12.66430 | 13888 ft | 298 kts | 24° |
| 2026-05-06 08:21 | 51.82097 | 12.67993 | 13531 ft | 296 kts | 24° |
| 2026-05-06 08:21 | 51.83911 | 12.69544 | 13146 ft | 294 kts | 24° |
| 2026-05-06 08:22 | 51.85708 | 12.71080 | 12747 ft | 291 kts | 24° |
| 2026-05-06 08:22 | 51.87486 | 12.72602 | 12352 ft | 286 kts | 24° |
| 2026-05-06 08:22 | 51.89221 | 12.74085 | 11972 ft | 278 kts | 24° |
| 2026-05-06 08:22 | 51.90908 | 12.75526 | 11584 ft | 271 kts | 24° |
| 2026-05-06 08:23 | 51.92554 | 12.76933 | 11214 ft | 265 kts | 24° |
| 2026-05-06 08:23 | 51.94165 | 12.78315 | 10841 ft | 259 kts | 24° |
| 2026-05-06 08:23 | 51.95746 | 12.79672 | 10472 ft | 255 kts | 24° |
| 2026-05-06 08:23 | 51.97274 | 12.80984 | 10153 ft | 249 kts | 24° |
| 2026-05-06 08:24 | 51.98793 | 12.82289 | 9847 ft | 245 kts | 23° |
| 2026-05-06 08:24 | 52.00290 | 12.83575 | 9553 ft | 242 kts | 24° |
| 2026-05-06 08:24 | 52.01763 | 12.84839 | 9225 ft | 238 kts | 23° |
| 2026-05-06 08:24 | 52.03202 | 12.86076 | 8935 ft | 229 kts | 24° |
| 2026-05-06 08:25 | 52.04573 | 12.87261 | 8630 ft | 219 kts | 24° |
| 2026-05-06 08:25 | 52.05898 | 12.88407 | 8356 ft | 212 kts | 24° |
| 2026-05-06 08:25 | 52.07194 | 12.89523 | 8073 ft | 211 kts | 24° |
| 2026-05-06 08:25 | 52.08479 | 12.90631 | 7703 ft | 212 kts | 25° |
| 2026-05-06 08:26 | 52.09779 | 12.91743 | 7386 ft | 211 kts | 25° |
| 2026-05-06 08:26 | 52.11065 | 12.92851 | 7041 ft | 206 kts | 25° |
| 2026-05-06 08:26 | 52.12306 | 12.93925 | 6686 ft | 198 kts | 25° |
| 2026-05-06 08:26 | 52.13488 | 12.94957 | 6546 ft | 184 kts | 25° |
| 2026-05-06 08:27 | 52.14591 | 12.96096 | 6683 ft | 192 kts | 33° |
| 2026-05-06 08:27 | 52.15658 | 12.97411 | 6489 ft | 193 kts | 34° |
| 2026-05-06 08:27 | 52.16703 | 12.98739 | 6153 ft | 189 kts | 35° |
| 2026-05-06 08:27 | 52.17732 | 13.00047 | 5786 ft | 187 kts | 34° |
| 2026-05-06 08:28 | 52.18782 | 13.01213 | 5434 ft | 184 kts | 27° |
| 2026-05-06 08:28 | 52.19897 | 13.02233 | 5089 ft | 183 kts | 25° |
| 2026-05-06 08:28 | 52.21014 | 13.03225 | 4787 ft | 182 kts | 25° |
| 2026-05-06 08:28 | 52.22119 | 13.04205 | 4461 ft | 180 kts | 25° |
| 2026-05-06 08:29 | 52.23219 | 13.05179 | 4171 ft | 179 kts | 25° |
| 2026-05-06 08:29 | 52.24238 | 13.06337 | 3862 ft | 180 kts | 46° |
| 2026-05-06 08:29 | 52.24950 | 13.08028 | 3552 ft | 182 kts | 55° |
| 2026-05-06 08:29 | 52.25560 | 13.09827 | 3252 ft | 182 kts | 62° |
| 2026-05-06 08:30 | 52.26074 | 13.11696 | 3048 ft | 179 kts | 64° |
| 2026-05-06 08:30 | 52.26544 | 13.13558 | 3007 ft | 180 kts | 66° |
| 2026-05-06 08:30 | 52.27010 | 13.15460 | 3012 ft | 180 kts | 68° |
| 2026-05-06 08:30 | 52.27467 | 13.17346 | 3013 ft | 176 kts | 68° |
| 2026-05-06 08:31 | 52.27912 | 13.19184 | 3011 ft | 173 kts | 68° |
| 2026-05-06 08:31 | 52.28352 | 13.21009 | 3008 ft | 172 kts | 68° |
| 2026-05-06 08:31 | 52.28793 | 13.22838 | 3006 ft | 172 kts | 69° |
| 2026-05-06 08:31 | 52.29234 | 13.24671 | 2974 ft | 174 kts | 68° |
| 2026-05-06 08:32 | 52.29672 | 13.26494 | 2801 ft | 171 kts | 68° |
| 2026-05-06 08:32 | 52.30102 | 13.28283 | 2580 ft | 167 kts | 67° |
| 2026-05-06 08:32 | 52.30520 | 13.30026 | 2376 ft | 166 kts | 67° |
| 2026-05-06 08:32 | 52.30941 | 13.31771 | 2148 ft | 161 kts | 67° |
| 2026-05-06 08:33 | 52.31331 | 13.33406 | 1930 ft | 148 kts | 66° |
| 2026-05-06 08:33 | 52.31692 | 13.34912 | 1739 ft | 137 kts | 66° |
| 2026-05-06 08:33 | 52.32033 | 13.36340 | 1556 ft | 134 kts | 66° |
| 2026-05-06 08:33 | 52.32371 | 13.37748 | 1374 ft | 133 kts | 66° |
| 2026-05-06 08:34 | 52.32708 | 13.39159 | 1189 ft | 133 kts | 66° |
| 2026-05-06 08:34 | 52.33385 | 13.41991 | 822 ft | 135 kts | 68° |
| 2026-05-06 08:34 | 52.33730 | 13.43436 | 650 ft | 136 kts | 65° |
| 2026-05-06 08:35 | 52.34080 | 13.44889 | 428 ft | 137 kts | 65° |
| 2026-05-06 08:35 | 52.34422 | 13.46344 | 253 ft | 136 kts | 67° |
| 2026-05-06 08:35 | 52.34765 | 13.47777 | 155 ft | 129 kts | 69° |
| 2026-05-06 08:35 | 52.35029 | 13.48889 | 154 ft | 80 kts | 69° |
| 2026-05-06 08:36 | 52.35184 | 13.49542 | 154 ft | 52 kts | 69° |
| 2026-05-06 08:36 | 52.35304 | 13.50038 | 154 ft | 42 kts | 69° |
| 2026-05-06 08:36 | 52.35412 | 13.50437 | 154 ft | 36 kts | 54° |
| 2026-05-06 08:36 | 52.35575 | 13.50684 | 154 ft | 24 kts | 38° |
| 2026-05-06 08:37 | 52.35640 | 13.50767 | 154 ft | 9 kts | 38° |
| 2026-05-06 08:37 | 52.35684 | 13.50823 | 155 ft | 6 kts | 38° |
| 2026-05-06 08:37 | 52.35708 | 13.50839 | 155 ft | 3 kts | 13° |
| 2026-05-06 08:37 | 52.35746 | 13.50838 | 155 ft | 6 kts | 354° |
| 2026-05-06 08:38 | 52.35770 | 13.50828 | 155 ft | 2 kts | 337° |
| 2026-05-06 08:38 | 52.35822 | 13.50793 | 155 ft | 12 kts | 338° |
| 2026-05-06 08:38 | 52.35896 | 13.50775 | 155 ft | 10 kts | 25° |
| 2026-05-06 08:38 | 52.35926 | 13.50863 | 155 ft | 10 kts | 68° |
| 2026-05-06 08:39 | 52.35961 | 13.51006 | 155 ft | 13 kts | 69° |
| 2026-05-06 08:39 | 52.35992 | 13.51136 | 155 ft | 11 kts | 69° |
| 2026-05-06 08:39 | 52.36017 | 13.51244 | 155 ft | 9 kts | 69° |
| 2026-05-06 08:39 | 52.36035 | 13.51315 | 155 ft | 5 kts | 65° |
| 2026-05-06 08:40 | 52.36069 | 13.51331 | 155 ft | 4 kts | 348° |
| 2026-05-06 08:40 | 52.36078 | 13.51326 | 155 ft | 0 kts | 341° |
| 2026-05-06 08:40 | 52.36093 | 13.51317 | 155 ft | 3 kts | 340° |
| 2026-05-06 08:40 | 52.36106 | 13.51309 | 155 ft | 5 kts | 339° |
| 2026-05-06 08:41 | 52.36124 | 13.51297 | 155 ft | 0 kts | 339° |
| 2026-05-06 08:41 | 52.36126 | 13.51296 | 155 ft | 0 kts | 339° |